createdAt,value
2018-09-24T00:00:17.013Z,97661
2018-09-24T00:01:16.872Z,97655
2018-09-24T00:02:17.064Z,97658
2018-09-24T00:03:17.044Z,97657
2018-09-24T00:04:17.112Z,97663
2018-09-24T00:05:17.251Z,97669
2018-09-24T00:06:17.455Z,97672
2018-09-24T00:07:17.386Z,97672
2018-09-24T00:08:17.452Z,97676
2018-09-24T00:09:17.551Z,97671
2018-09-24T00:10:17.748Z,97672
2018-09-24T00:11:17.833Z,97673
2018-09-24T00:12:17.872Z,97668
2018-09-24T00:13:17.934Z,97666
2018-09-24T00:14:18.185Z,97667
2018-09-24T00:15:18.201Z,97667
2018-09-24T00:16:18.162Z,97669
2018-09-24T00:17:18.297Z,97670
2018-09-24T00:18:18.383Z,97666
2018-09-24T00:19:18.534Z,97668
2018-09-24T00:20:36.592Z,97663
2018-09-24T00:21:18.679Z,97664
2018-09-24T00:22:18.757Z,97667
2018-09-24T00:23:18.820Z,97668
2018-09-24T00:24:18.881Z,97669
2018-09-24T00:25:19.058Z,97672
2018-09-24T00:26:19.086Z,97675
2018-09-24T00:27:19.241Z,97672
2018-09-24T00:28:19.155Z,97677
2018-09-24T00:29:19.249Z,97678
2018-09-24T00:30:19.336Z,97681
2018-09-24T00:31:19.277Z,97681
2018-09-24T00:32:19.431Z,97679
2018-09-24T00:33:19.540Z,97679
2018-09-24T00:34:19.695Z,97680
2018-09-24T00:35:20.012Z,97676
2018-09-24T00:36:19.963Z,97676
2018-09-24T00:37:20.035Z,97677
2018-09-24T00:38:20.248Z,97676
2018-09-24T00:39:20.185Z,97674
2018-09-24T00:40:20.287Z,97675
2018-09-24T00:41:20.435Z,97674
2018-09-24T00:42:20.588Z,97677
2018-09-24T00:43:20.486Z,97677
2018-09-24T00:44:20.490Z,97678
2018-09-24T00:45:20.679Z,97676
2018-09-24T00:46:21.627Z,97676
2018-09-24T00:47:20.725Z,97679
2018-09-24T00:48:20.894Z,97677
2018-09-24T00:49:21.073Z,97678
2018-09-24T00:50:21.252Z,97679
2018-09-24T00:51:21.256Z,97678
2018-09-24T00:52:21.279Z,97681
2018-09-24T00:53:21.439Z,97683
2018-09-24T00:55:21.588Z,97681
2018-09-24T00:56:21.833Z,97677
2018-09-24T00:59:21.866Z,97678
2018-09-24T01:00:21.880Z,97681
2018-09-24T01:01:22.165Z,97679
2018-09-24T01:02:22.106Z,97680
2018-09-24T01:03:22.166Z,97679
2018-09-24T01:04:22.282Z,97673
2018-09-24T01:05:22.552Z,97674
2018-09-24T01:06:22.624Z,97678
2018-09-24T01:07:22.494Z,97678
2018-09-24T01:08:22.623Z,97674
2018-09-24T01:09:22.833Z,97676
2018-09-24T01:10:22.857Z,97675
2018-09-24T01:11:22.874Z,97683
2018-09-24T01:12:23.037Z,97680
2018-09-24T01:13:23.307Z,97683
2018-09-24T01:14:23.294Z,97689
2018-09-24T01:15:23.326Z,97684
2018-09-24T01:16:23.436Z,97687
2018-09-24T01:17:23.527Z,97685
2018-09-24T01:18:23.728Z,97687
2018-09-24T01:19:23.702Z,97687
2018-09-24T01:20:23.816Z,97689
2018-09-24T01:21:23.924Z,97693
2018-09-24T01:23:24.204Z,97693
2018-09-24T01:24:24.303Z,97694
2018-09-24T01:25:24.426Z,97697
2018-09-24T01:26:24.560Z,97700
2018-09-24T01:27:42.559Z,97703
2018-09-24T01:28:24.725Z,97701
2018-09-24T01:29:24.814Z,97697
2018-09-24T01:30:24.898Z,97695
2018-09-24T01:31:24.997Z,97693
2018-09-24T01:32:24.989Z,97697
2018-09-24T01:33:25.182Z,97699
2018-09-24T01:34:25.122Z,97698
2018-09-24T01:35:25.204Z,97701
2018-09-24T01:36:25.272Z,97699
2018-09-24T01:37:25.519Z,97702
2018-09-24T01:39:25.583Z,97708
2018-09-24T01:40:25.688Z,97707
2018-09-24T01:41:26.788Z,97707
2018-09-24T01:42:25.959Z,97712
2018-09-24T01:43:43.824Z,97712
2018-09-24T01:44:25.923Z,97713
2018-09-24T01:45:26.185Z,97722
2018-09-24T01:46:26.117Z,97720
2018-09-24T01:47:26.125Z,97717
2018-09-24T01:48:26.199Z,97728
2018-09-24T01:49:26.380Z,97725
2018-09-24T01:50:26.347Z,97729
2018-09-24T01:51:26.424Z,97733
2018-09-24T01:52:26.580Z,97732
2018-09-24T01:53:26.686Z,97731
2018-09-24T01:54:26.600Z,97737
2018-09-24T01:55:26.734Z,97740
2018-09-24T01:56:26.850Z,97743
2018-09-24T01:57:26.928Z,97742
2018-09-24T01:58:27.077Z,97742
2018-09-24T01:59:27.195Z,97750
2018-09-24T02:00:27.383Z,97748
2018-09-24T02:01:27.324Z,97749
2018-09-24T02:02:27.410Z,97747
2018-09-24T02:03:27.520Z,97746
2018-09-24T02:04:27.673Z,97740
2018-09-24T02:05:27.692Z,97744
2018-09-24T02:06:27.684Z,97744
2018-09-24T02:07:27.766Z,97742
2018-09-24T02:08:27.911Z,97745
2018-09-24T02:09:27.844Z,97749
2018-09-24T02:10:27.994Z,97748
2018-09-24T02:11:28.103Z,97749
2018-09-24T02:12:28.210Z,97754
2018-09-24T02:13:28.352Z,97754
2018-09-24T02:14:28.473Z,97760
2018-09-24T02:15:28.634Z,97764
2018-09-24T02:16:28.794Z,97764
2018-09-24T02:17:28.833Z,97768
2018-09-24T02:18:28.773Z,97772
2018-09-24T02:19:28.895Z,97774
2018-09-24T02:20:28.967Z,97770
2018-09-24T02:21:29.158Z,97776
2018-09-24T02:22:29.104Z,97779
2018-09-24T02:23:29.228Z,97779
2018-09-24T02:24:29.349Z,97782
2018-09-24T02:25:29.650Z,97786
2018-09-24T02:26:29.433Z,97787
2018-09-24T02:27:29.547Z,97784
2018-09-24T02:28:29.743Z,97791
2018-09-24T02:29:29.830Z,97793
2018-09-24T02:30:29.960Z,97796
2018-09-24T02:31:30.007Z,97798
2018-09-24T02:32:30.209Z,97793
2018-09-24T02:33:30.098Z,97796
2018-09-24T02:34:30.295Z,97798
2018-09-24T02:35:30.360Z,97799
2018-09-24T02:36:30.519Z,97797
2018-09-24T02:37:30.611Z,97799
2018-09-24T02:38:30.679Z,97806
2018-09-24T02:39:30.771Z,97805
2018-09-24T02:40:30.927Z,97805
2018-09-24T02:41:30.860Z,97805
2018-09-24T02:42:30.908Z,97811
2018-09-24T02:43:31.027Z,97810
2018-09-24T02:44:31.266Z,97815
2018-09-24T02:45:31.284Z,97810
2018-09-24T02:46:31.296Z,97812
2018-09-24T02:47:31.367Z,97816
2018-09-24T02:48:31.406Z,97820
2018-09-24T02:49:31.354Z,97821
2018-09-24T02:50:31.413Z,97823
2018-09-24T02:51:31.507Z,97825
2018-09-24T02:52:31.509Z,97826
2018-09-24T02:53:31.592Z,97820
2018-09-24T02:54:31.680Z,97829
2018-09-24T02:55:31.691Z,97828
2018-09-24T02:56:31.878Z,97834
2018-09-24T02:57:31.838Z,97835
2018-09-24T02:58:31.928Z,97837
2018-09-24T02:59:32.031Z,97843
2018-09-24T03:00:32.153Z,97843
2018-09-24T03:01:32.239Z,97844
2018-09-24T03:02:32.546Z,97848
2018-09-24T03:03:32.338Z,97846
2018-09-24T03:04:32.461Z,97850
2018-09-24T03:05:32.565Z,97848
2018-09-24T03:06:32.737Z,97850
2018-09-24T03:07:32.724Z,97855
2018-09-24T03:08:32.756Z,97857
2018-09-24T03:09:32.875Z,97861
2018-09-24T03:11:33.051Z,97868
2018-09-24T03:12:33.269Z,97868
2018-09-24T03:13:33.190Z,97869
2018-09-24T03:14:33.314Z,97871
2018-09-24T03:15:33.396Z,97875
2018-09-24T03:16:33.672Z,97872
2018-09-24T03:17:33.628Z,97874
2018-09-24T03:19:33.564Z,97877
2018-09-24T03:20:33.641Z,97877
2018-09-24T03:21:33.733Z,97882
2018-09-24T03:22:33.797Z,97884
2018-09-24T03:23:33.853Z,97885
2018-09-24T03:24:33.962Z,97885
2018-09-24T03:25:34.058Z,97885
2018-09-24T03:26:34.171Z,97886
2018-09-24T03:27:34.351Z,97885
2018-09-24T03:28:52.212Z,97883
2018-09-24T03:29:34.464Z,97889
2018-09-24T03:30:34.685Z,97895
2018-09-24T03:31:34.611Z,97897
2018-09-24T03:32:34.776Z,97901
2018-09-24T03:33:34.739Z,97900
2018-09-24T03:34:34.956Z,97901
2018-09-24T03:35:34.906Z,97904
2018-09-24T03:36:34.950Z,97902
2018-09-24T03:37:35.074Z,97906
2018-09-24T03:38:35.287Z,97912
2018-09-24T03:39:35.218Z,97915
2018-09-24T03:40:35.287Z,97914
2018-09-24T03:41:35.372Z,97916
2018-09-24T03:42:35.433Z,97920
2018-09-24T03:43:35.349Z,97921
2018-09-24T03:44:35.428Z,97918
2018-09-24T03:45:35.427Z,97926
2018-09-24T03:46:35.524Z,97923
2018-09-24T03:47:35.605Z,97924
2018-09-24T03:48:35.818Z,97924
2018-09-24T03:49:35.898Z,97926
2018-09-24T03:50:35.852Z,97928
2018-09-24T03:51:35.836Z,97926
2018-09-24T03:52:36.024Z,97925
2018-09-24T03:53:35.989Z,97929
2018-09-24T03:54:36.068Z,97935
2018-09-24T03:55:36.113Z,97937
2018-09-24T03:56:36.271Z,97940
2018-09-24T03:57:36.378Z,97943
2018-09-24T03:58:36.461Z,97945
2018-09-24T03:59:36.580Z,97945
2018-09-24T04:00:36.708Z,97946
2018-09-24T04:01:36.789Z,97950
2018-09-24T04:02:36.765Z,97951
2018-09-24T04:03:36.903Z,97950
2018-09-24T04:04:37.084Z,97951
2018-09-24T04:05:37.124Z,97955
2018-09-24T04:06:37.129Z,97955
2018-09-24T04:07:37.262Z,97959
2018-09-24T04:08:37.403Z,97961
2018-09-24T04:09:37.462Z,97964
2018-09-24T04:10:37.476Z,97969
2018-09-24T04:11:37.601Z,97975
2018-09-24T04:12:37.707Z,97976
2018-09-24T04:13:37.845Z,97977
2018-09-24T04:14:38.048Z,97978
2018-09-24T04:15:38.023Z,97984
2018-09-24T04:16:38.118Z,97985
2018-09-24T04:17:38.234Z,97989
2018-09-24T04:18:38.220Z,97989
2018-09-24T04:19:38.365Z,97987
2018-09-24T04:20:38.391Z,97993
2018-09-24T04:21:38.374Z,97994
2018-09-24T04:22:38.505Z,97998
2018-09-24T04:23:38.629Z,97995
2018-09-24T04:24:38.789Z,97994
2018-09-24T04:25:38.860Z,97996
2018-09-24T04:26:38.888Z,98001
2018-09-24T04:27:38.858Z,98001
2018-09-24T04:28:39.006Z,97997
2018-09-24T04:29:39.115Z,98000
2018-09-24T04:30:39.298Z,98004
2018-09-24T04:31:39.238Z,98010
2018-09-24T04:32:39.332Z,98008
2018-09-24T04:33:39.429Z,98008
2018-09-24T04:34:39.582Z,98010
2018-09-24T04:35:39.673Z,98011
2018-09-24T04:36:39.868Z,98013
2018-09-24T04:37:57.829Z,98016
2018-09-24T04:38:40.013Z,98017
2018-09-24T04:39:40.154Z,98023
2018-09-24T04:40:40.282Z,98027
2018-09-24T04:41:40.332Z,98032
2018-09-24T04:42:40.302Z,98038
2018-09-24T04:43:40.514Z,98036
2018-09-24T04:44:40.765Z,98038
2018-09-24T04:45:40.668Z,98037
2018-09-24T04:46:40.672Z,98040
2018-09-24T04:47:41.183Z,98047
2018-09-24T04:48:40.947Z,98045
2018-09-24T04:49:40.937Z,98043
2018-09-24T04:50:58.880Z,98046
2018-09-24T04:51:41.192Z,98048
2018-09-24T04:52:41.207Z,98050
2018-09-24T04:53:41.166Z,98057
2018-09-24T04:54:41.270Z,98063
2018-09-24T04:55:41.684Z,98064
2018-09-24T04:57:41.517Z,98063
2018-09-24T04:58:41.690Z,98062
2018-09-24T04:59:41.786Z,98065
2018-09-24T05:00:41.899Z,98069
2018-09-24T05:01:41.924Z,98068
2018-09-24T05:02:42.000Z,98074
2018-09-24T05:03:42.040Z,98074
2018-09-24T05:04:42.207Z,98077
2018-09-24T05:05:42.192Z,98080
2018-09-24T05:06:42.198Z,98084
2018-09-24T05:07:42.241Z,98084
2018-09-24T05:08:42.440Z,98093
2018-09-24T05:09:42.312Z,98095
2018-09-24T05:10:42.431Z,98098
2018-09-24T05:11:42.534Z,98100
2018-09-24T05:13:00.442Z,98103
2018-09-24T05:13:42.575Z,98106
2018-09-24T05:14:42.629Z,98113
2018-09-24T05:15:42.817Z,98115
2018-09-24T05:16:42.676Z,98121
2018-09-24T05:17:42.673Z,98117
2018-09-24T05:18:42.868Z,98123
2018-09-24T05:19:42.707Z,98121
2018-09-24T05:20:42.860Z,98129
2018-09-24T05:21:42.929Z,98135
2018-09-24T05:22:43.209Z,98136
2018-09-24T05:23:43.130Z,98137
2018-09-24T05:24:43.190Z,98140
2018-09-24T05:25:43.283Z,98146
2018-09-24T05:26:43.452Z,98143
2018-09-24T05:27:43.484Z,98150
2018-09-24T05:29:01.433Z,98152
2018-09-24T05:29:43.617Z,98148
2018-09-24T05:30:43.643Z,98152
2018-09-24T05:31:43.733Z,98155
2018-09-24T05:32:43.778Z,98157
2018-09-24T05:33:43.863Z,98158
2018-09-24T05:34:43.845Z,98161
2018-09-24T05:35:43.856Z,98162
2018-09-24T05:36:44.202Z,98166
2018-09-24T05:37:44.069Z,98167
2018-09-24T05:38:44.112Z,98170
2018-09-24T05:39:44.141Z,98171
2018-09-24T05:40:44.345Z,98175
2018-09-24T05:43:44.304Z,98186
2018-09-24T05:44:44.293Z,98188
2018-09-24T05:45:44.433Z,98201
2018-09-24T05:46:44.531Z,98197
2018-09-24T05:47:44.586Z,98200
2018-09-24T05:48:44.693Z,98199
2018-09-24T05:49:44.779Z,98201
2018-09-24T05:50:44.828Z,98203
2018-09-24T05:51:44.893Z,98207
2018-09-24T05:52:44.973Z,98205
2018-09-24T05:53:45.163Z,98206
2018-09-24T05:54:45.059Z,98210
2018-09-24T05:55:45.075Z,98210
2018-09-24T05:56:45.158Z,98210
2018-09-24T05:57:45.243Z,98214
2018-09-24T05:58:45.511Z,98219
2018-09-24T06:00:45.606Z,98221
2018-09-24T06:02:45.719Z,98227
2018-09-24T06:04:03.729Z,98230
2018-09-24T06:04:45.702Z,98234
2018-09-24T06:05:45.756Z,98237
2018-09-24T06:06:45.822Z,98244
2018-09-24T06:07:45.913Z,98244
2018-09-24T06:08:45.964Z,98248
2018-09-24T06:09:46.013Z,98247
2018-09-24T06:10:46.040Z,98244
2018-09-24T06:11:46.177Z,98247
2018-09-24T06:12:46.246Z,98247
2018-09-24T06:13:46.390Z,98249
2018-09-24T06:14:46.422Z,98252
2018-09-24T06:15:46.489Z,98256
2018-09-24T06:16:46.481Z,98265
2018-09-24T06:17:47.636Z,98269
2018-09-24T06:18:46.751Z,98273
2018-09-24T06:19:46.867Z,98275
2018-09-24T06:20:46.883Z,98280
2018-09-24T06:21:46.952Z,98284
2018-09-24T06:23:47.224Z,98288
2018-09-24T06:24:47.220Z,98294
2018-09-24T06:25:47.270Z,98295
2018-09-24T06:27:47.386Z,98300
2018-09-24T06:28:47.348Z,98298
2018-09-24T06:29:47.478Z,98301
2018-09-24T06:30:47.616Z,98295
2018-09-24T06:31:47.647Z,98299
2018-09-24T06:32:47.819Z,98299
2018-09-24T06:33:47.863Z,98304
2018-09-24T06:34:47.940Z,98302
2018-09-24T06:35:47.992Z,98296
2018-09-24T06:36:48.077Z,98301
2018-09-24T06:37:48.250Z,98300
2018-09-24T06:38:48.145Z,98301
2018-09-24T06:41:29.137Z,98303
2018-09-24T06:42:04.054Z,98308
2018-09-24T06:43:04.021Z,98309
2018-09-24T07:10:17.030Z,98340
2018-09-24T07:11:17.089Z,98341
2018-09-24T07:11:59.107Z,98341
2018-09-24T07:12:59.132Z,98344
2018-09-24T07:13:59.255Z,98349
2018-09-24T07:14:59.325Z,98353
2018-09-24T07:15:59.291Z,98352
2018-09-24T07:16:59.362Z,98349
2018-09-24T07:17:59.466Z,98355
2018-09-24T07:18:59.664Z,98363
2018-09-24T07:19:59.538Z,98368
2018-09-24T07:20:59.656Z,98373
2018-09-24T07:21:59.814Z,98364
2018-09-24T07:23:00.794Z,98363
2018-09-24T07:23:59.798Z,98367
2018-09-24T07:26:17.835Z,98373
2018-09-24T07:27:17.928Z,98377
2018-09-24T07:28:00.088Z,98383
2018-09-24T07:29:00.108Z,98381
2018-09-24T07:30:00.122Z,98382
2018-09-24T07:31:00.198Z,98379
2018-09-24T07:32:00.490Z,98375
2018-09-24T07:33:00.528Z,98378
2018-09-24T07:34:00.357Z,98387
2018-09-24T07:35:00.436Z,98393
2018-09-24T07:36:00.582Z,98399
2018-09-24T07:37:00.787Z,98398
2018-09-24T07:38:00.636Z,98397
2018-09-24T07:39:00.717Z,98400
2018-09-24T07:40:00.860Z,98405
2018-09-24T07:41:00.748Z,98415
2018-09-24T07:43:00.947Z,98418
2018-09-24T07:44:01.052Z,98424
2018-09-24T07:45:19.058Z,98420
2018-09-24T07:46:01.205Z,98427
2018-09-24T07:47:01.323Z,98424
2018-09-24T07:48:01.385Z,98423
2018-09-24T07:49:01.452Z,98425
2018-09-24T07:50:01.475Z,98418
2018-09-24T07:51:01.641Z,98419
2018-09-24T07:52:01.749Z,98418
2018-09-24T07:53:01.657Z,98420
2018-09-24T07:54:01.773Z,98423
2018-09-24T07:55:01.889Z,98425
2018-09-24T07:56:01.990Z,98421
2018-09-24T07:57:01.952Z,98420
2018-09-24T07:58:02.020Z,98416
2018-09-24T07:59:02.177Z,98421
2018-09-24T08:00:02.066Z,98426
2018-09-24T08:01:02.133Z,98432
2018-09-24T08:02:02.237Z,98432
2018-09-24T08:03:02.250Z,98436
2018-09-24T08:04:02.415Z,98436
2018-09-24T08:05:02.480Z,98437
2018-09-24T08:06:02.518Z,98444
2018-09-24T08:07:02.706Z,98440
2018-09-24T08:08:02.751Z,98440
2018-09-24T08:09:02.637Z,98448
2018-09-24T08:10:02.707Z,98450
2018-09-24T08:11:02.782Z,98450
2018-09-24T08:12:02.797Z,98451
2018-09-24T08:13:02.952Z,98450
2018-09-24T08:14:03.027Z,98448
2018-09-24T08:15:03.194Z,98448
2018-09-24T08:16:04.238Z,98445
2018-09-24T08:17:03.267Z,98446
2018-09-24T08:18:03.493Z,98451
2018-09-24T08:19:03.518Z,98450
2018-09-24T08:20:03.448Z,98452
2018-09-24T08:21:03.702Z,98449
2018-09-24T08:22:03.778Z,98449
2018-09-24T08:23:03.683Z,98448
2018-09-24T08:24:03.729Z,98451
2018-09-24T08:25:03.819Z,98451
2018-09-24T08:26:03.942Z,98442
2018-09-24T08:27:04.041Z,98448
2018-09-24T08:28:04.058Z,98440
2018-09-24T08:29:04.119Z,98446
2018-09-24T08:30:04.284Z,98449
2018-09-24T08:31:04.380Z,98452
2018-09-24T08:33:04.590Z,98454
2018-09-24T08:34:22.414Z,98455
2018-09-24T08:35:22.475Z,98455
2018-09-24T08:36:04.601Z,98458
2018-09-24T08:37:04.796Z,98463
2018-09-24T08:38:04.808Z,98464
2018-09-24T08:39:04.956Z,98462
2018-09-24T08:40:05.058Z,98459
2018-09-24T08:41:05.136Z,98462
2018-09-24T08:42:05.205Z,98466
2018-09-24T08:43:05.172Z,98463
2018-09-24T08:44:05.258Z,98463
2018-09-24T08:45:05.277Z,98468
2018-09-24T08:46:05.280Z,98467
2018-09-24T08:47:05.335Z,98469
2018-09-24T08:48:05.484Z,98467
2018-09-24T08:49:05.426Z,98476
2018-09-24T08:50:05.559Z,98474
2018-09-24T08:51:05.565Z,98470
2018-09-24T08:52:05.646Z,98470
2018-09-24T08:53:05.869Z,98478
2018-09-24T08:54:05.834Z,98471
2018-09-24T08:55:05.855Z,98477
2018-09-24T08:56:06.185Z,98484
2018-09-24T08:57:06.146Z,98485
2018-09-24T08:58:06.300Z,98491
2018-09-24T08:59:06.261Z,98487
2018-09-24T09:00:06.393Z,98489
2018-09-24T09:01:06.567Z,98487
2018-09-24T09:02:06.569Z,98488
2018-09-24T09:03:06.702Z,98483
2018-09-24T09:04:06.818Z,98482
2018-09-24T09:05:06.885Z,98486
2018-09-24T09:07:06.954Z,98484
2018-09-24T09:08:07.095Z,98484
2018-09-24T09:09:07.126Z,98478
2018-09-24T09:10:07.236Z,98472
2018-09-24T09:11:07.408Z,98473
2018-09-24T09:12:07.471Z,98473
2018-09-24T09:13:07.616Z,98471
2018-09-24T09:14:07.700Z,98472
2018-09-24T09:15:07.807Z,98482
2018-09-24T09:16:07.874Z,98482
2018-09-24T09:17:07.999Z,98485
2018-09-24T09:18:08.074Z,98482
2018-09-24T09:19:08.090Z,98481
2018-09-24T09:20:08.260Z,98484
2018-09-24T09:21:08.154Z,98483
2018-09-24T09:22:08.276Z,98488
2018-09-24T09:23:08.377Z,98485
2018-09-24T09:24:08.625Z,98483
2018-09-24T09:25:26.516Z,98486
2018-09-24T09:26:08.690Z,98486
2018-09-24T09:27:08.770Z,98490
2018-09-24T09:28:08.865Z,98492
2018-09-24T09:29:08.940Z,98489
2018-09-24T09:30:08.924Z,98491
2018-09-24T09:31:09.158Z,98494
2018-09-24T09:32:09.179Z,98496
2018-09-24T09:33:09.123Z,98496
2018-09-24T09:34:09.195Z,98502
2018-09-24T09:35:09.379Z,98503
2018-09-24T09:36:09.260Z,98504
2018-09-24T09:37:09.334Z,98497
2018-09-24T09:38:27.361Z,98499
2018-09-24T09:39:09.495Z,98500
2018-09-24T09:40:09.547Z,98498
2018-09-24T09:41:09.759Z,98496
2018-09-24T09:42:09.831Z,98496
2018-09-24T09:43:09.940Z,98500
2018-09-24T09:44:09.852Z,98500
2018-09-24T09:45:09.936Z,98499
2018-09-24T09:46:10.077Z,98503
2018-09-24T09:47:10.235Z,98499
2018-09-24T09:48:10.489Z,98500
2018-09-24T09:49:28.342Z,98507
2018-09-24T09:50:10.554Z,98508
2018-09-24T09:51:10.542Z,98505
2018-09-24T09:52:10.578Z,98504
2018-09-24T09:53:10.653Z,98505
2018-09-24T09:54:10.831Z,98510
2018-09-24T09:55:10.836Z,98513
2018-09-24T09:56:11.050Z,98512
2018-09-24T09:57:10.980Z,98510
2018-09-24T09:58:11.143Z,98508
2018-09-24T09:59:11.264Z,98506
2018-09-24T10:00:11.369Z,98505
2018-09-24T10:01:11.526Z,98504
2018-09-24T10:02:11.468Z,98504
2018-09-24T10:03:11.618Z,98499
2018-09-24T10:04:11.774Z,98497
2018-09-24T10:05:11.716Z,98502
2018-09-24T10:06:11.851Z,98509
2018-09-24T10:07:12.010Z,98505
2018-09-24T10:08:11.990Z,98505
2018-09-24T10:09:29.946Z,98497
2018-09-24T10:10:12.006Z,98501
2018-09-24T10:11:12.263Z,98501
2018-09-24T10:12:12.224Z,98498
2018-09-24T10:13:12.265Z,98502
2018-09-24T10:14:12.372Z,98505
2018-09-24T10:15:12.529Z,98508
2018-09-24T10:16:12.480Z,98504
2018-09-24T10:17:12.639Z,98509
2018-09-24T10:18:12.779Z,98506
2018-09-24T10:19:12.724Z,98506
2018-09-24T10:20:12.864Z,98502
2018-09-24T10:21:13.013Z,98506
2018-09-24T10:22:13.185Z,98502
2018-09-24T10:23:13.115Z,98504
2018-09-24T10:24:13.282Z,98508
2018-09-24T10:25:13.393Z,98507
2018-09-24T10:26:13.549Z,98509
2018-09-24T10:27:13.535Z,98507
2018-09-24T10:28:13.587Z,98504
2018-09-24T10:29:13.702Z,98507
2018-09-24T10:30:13.873Z,98509
2018-09-24T10:31:13.874Z,98498
2018-09-24T10:32:13.887Z,98502
2018-09-24T10:33:31.882Z,98502
2018-09-24T10:34:13.973Z,98497
2018-09-24T10:35:14.044Z,98495
2018-09-24T10:36:14.159Z,98496
2018-09-24T10:37:14.399Z,98493
2018-09-24T10:38:14.318Z,98497
2018-09-24T10:39:14.355Z,98494
2018-09-24T10:40:14.410Z,98494
2018-09-24T10:41:14.651Z,98496
2018-09-24T10:42:14.675Z,98497
2018-09-24T10:44:32.507Z,98490
2018-09-24T10:45:14.645Z,98491
2018-09-24T10:46:14.708Z,98491
2018-09-24T10:47:14.773Z,98488
2018-09-24T10:48:14.853Z,98492
2018-09-24T10:49:15.050Z,98490
2018-09-24T10:50:15.139Z,98488
2018-09-24T10:52:15.266Z,98490
2018-09-24T10:53:15.351Z,98490
2018-09-24T10:54:15.618Z,98484
2018-09-24T10:55:15.576Z,98492
2018-09-24T10:56:15.724Z,98490
2018-09-24T10:57:15.887Z,98485
2018-09-24T10:58:16.074Z,98486
2018-09-24T10:59:16.088Z,98481
2018-09-24T11:00:16.060Z,98484
2018-09-24T11:01:16.250Z,98479
2018-09-24T11:02:16.292Z,98478
2018-09-24T11:03:16.245Z,98480
2018-09-24T11:04:16.417Z,98480
2018-09-24T11:05:16.415Z,98479
2018-09-24T11:06:16.428Z,98474
2018-09-24T11:07:16.486Z,98474
2018-09-24T11:08:16.599Z,98474
2018-09-24T11:09:16.760Z,98474
2018-09-24T11:10:16.759Z,98475
2018-09-24T11:11:16.685Z,98470
2018-09-24T11:12:16.923Z,98471
2018-09-24T11:13:16.852Z,98469
2018-09-24T11:14:16.984Z,98469
2018-09-24T11:15:17.073Z,98463
2018-09-24T11:16:17.400Z,98471
2018-09-24T11:17:17.653Z,98477
2018-09-24T11:18:17.529Z,98470
2018-09-24T11:19:17.656Z,98468
2018-09-24T11:20:17.930Z,98475
2018-09-24T11:21:17.905Z,98475
2018-09-24T11:22:17.949Z,98475
2018-09-24T11:23:18.019Z,98473
2018-09-24T11:24:37.089Z,98470
2018-09-24T11:25:18.225Z,98469
2018-09-24T11:27:19.377Z,98466
2018-09-24T11:28:18.495Z,98462
2018-09-24T11:29:18.453Z,98459
2018-09-24T11:30:18.598Z,98457
2018-09-24T11:31:18.682Z,98459
2018-09-24T11:32:18.747Z,98456
2018-09-24T11:33:18.709Z,98454
2018-09-24T11:34:18.794Z,98453
2018-09-24T11:35:18.918Z,98444
2018-09-24T11:36:19.181Z,98444
2018-09-24T11:37:19.119Z,98442
2018-09-24T11:38:19.233Z,98437
2018-09-24T11:39:19.375Z,98441
2018-09-24T11:40:37.453Z,98436
2018-09-24T11:41:19.552Z,98435
2018-09-24T11:42:19.634Z,98438
2018-09-24T11:43:19.757Z,98435
2018-09-24T11:44:20.072Z,98436
2018-09-24T11:45:38.056Z,98438
2018-09-24T11:46:20.053Z,98437
2018-09-24T11:47:20.086Z,98437
2018-09-24T11:48:20.216Z,98441
2018-09-24T11:50:20.251Z,98434
2018-09-24T11:51:20.426Z,98432
2018-09-24T11:52:20.595Z,98432
2018-09-24T11:53:20.686Z,98433
2018-09-24T11:54:20.624Z,98436
2018-09-24T11:55:20.675Z,98438
2018-09-24T11:57:20.831Z,98434
2018-09-24T11:58:20.976Z,98438
2018-09-24T11:59:21.120Z,98435
2018-09-24T12:00:21.220Z,98437
2018-09-24T12:01:21.201Z,98440
2018-09-24T12:02:21.282Z,98440
2018-09-24T12:03:21.369Z,98437
2018-09-24T12:04:21.349Z,98440
2018-09-24T12:05:21.460Z,98437
2018-09-24T12:06:21.509Z,98440
2018-09-24T12:07:21.503Z,98437
2018-09-24T12:08:21.465Z,98439
2018-09-24T12:09:21.614Z,98437
2018-09-24T12:10:21.647Z,98434
2018-09-24T12:11:21.667Z,98436
2018-09-24T12:12:21.620Z,98440
2018-09-24T12:13:21.741Z,98440
2018-09-24T12:14:21.820Z,98442
2018-09-24T12:15:21.850Z,98439
2018-09-24T12:16:22.183Z,98438
2018-09-24T12:17:22.016Z,98438
2018-09-24T12:18:22.103Z,98434
2018-09-24T12:19:22.241Z,98439
2018-09-24T12:20:22.208Z,98435
2018-09-24T12:21:22.370Z,98434
2018-09-24T12:23:22.348Z,98435
2018-09-24T12:24:22.501Z,98434
2018-09-24T12:25:22.740Z,98439
2018-09-24T12:26:22.805Z,98441
2018-09-24T12:27:22.843Z,98439
2018-09-24T12:28:22.860Z,98437
2018-09-24T12:29:22.881Z,98438
2018-09-24T12:30:22.835Z,98440
2018-09-24T12:31:22.960Z,98437
2018-09-24T12:32:22.988Z,98436
2018-09-24T12:33:23.222Z,98441
2018-09-24T12:34:23.278Z,98436
2018-09-24T12:35:23.259Z,98436
2018-09-24T12:36:23.375Z,98433
2018-09-24T12:37:23.460Z,98434
2018-09-24T12:38:23.571Z,98431
2018-09-24T12:39:23.603Z,98430
2018-09-24T12:40:23.695Z,98429
2018-09-24T12:41:23.699Z,98426
2018-09-24T12:42:23.866Z,98427
2018-09-24T12:43:23.854Z,98427
2018-09-24T12:44:23.867Z,98435
2018-09-24T12:45:24.059Z,98437
2018-09-24T12:46:24.140Z,98440
2018-09-24T12:47:24.150Z,98436
2018-09-24T12:49:24.230Z,98431
2018-09-24T12:50:24.186Z,98437
2018-09-24T12:51:24.345Z,98435
2018-09-24T12:52:24.551Z,98433
2018-09-24T12:53:24.592Z,98434
2018-09-24T12:54:24.653Z,98431
2018-09-24T12:55:24.693Z,98434
2018-09-24T12:56:42.717Z,98436
2018-09-24T12:57:24.954Z,98434
2018-09-24T12:58:25.004Z,98433
2018-09-24T12:59:25.050Z,98439
2018-09-24T13:00:25.242Z,98434
2018-09-24T13:01:25.278Z,98436
2018-09-24T13:02:25.262Z,98431
2018-09-24T13:03:25.460Z,98434
2018-09-24T13:04:25.447Z,98433
2018-09-24T13:05:25.476Z,98433
2018-09-24T13:06:25.524Z,98433
2018-09-24T13:07:25.711Z,98438
2018-09-24T13:08:25.805Z,98433
2018-09-24T13:09:25.785Z,98438
2018-09-24T13:11:25.935Z,98434
2018-09-24T13:12:26.045Z,98437
2018-09-24T13:13:26.082Z,98431
2018-09-24T13:14:26.066Z,98428
2018-09-24T13:15:26.313Z,98425
2018-09-24T13:16:26.397Z,98429
2018-09-24T13:17:26.447Z,98427
2018-09-24T13:19:26.556Z,98429
2018-09-24T13:20:26.528Z,98430
2018-09-24T13:21:26.576Z,98432
2018-09-24T13:22:26.817Z,98427
2018-09-24T13:23:26.849Z,98428
2018-09-24T13:24:26.743Z,98426
2018-09-24T13:25:44.841Z,98426
2018-09-24T13:26:27.100Z,98423
2018-09-24T13:28:27.151Z,98427
2018-09-24T13:29:27.133Z,98423
2018-09-24T13:30:27.241Z,98429
2018-09-24T13:31:27.403Z,98452
2018-09-24T13:32:27.263Z,98423
2018-09-24T13:33:27.356Z,98428
2018-09-24T13:34:27.439Z,98450
2018-09-24T13:35:27.522Z,98447
2018-09-24T13:36:27.480Z,98446
2018-09-24T13:37:27.489Z,98441
2018-09-24T13:38:27.569Z,98446
2018-09-24T13:40:27.676Z,98441
2018-09-24T13:41:27.857Z,98440
2018-09-24T13:42:27.932Z,98441
2018-09-24T13:43:27.970Z,98438
2018-09-24T13:44:27.989Z,98438
2018-09-24T13:45:28.029Z,98446
2018-09-24T13:46:28.139Z,98443
2018-09-24T13:47:28.156Z,98440
2018-09-24T13:48:29.257Z,98441
2018-09-24T13:49:28.345Z,98441